• Join FlightAware (Why Join?)
  • Login
  • US Flag 
10:47AM EDT


 

Airport Tracker/Info


-or-


 

Live Flight TrackerFlight Track Log ✈ N231CW ✈ 22-Jul-2013 ✈ P14 - 1T8

Flight Track Log - Related Links

Times and Time Zones

All times are in EDT time to prevent confusion due to time zone crossing. See the N231CW flight status page for this flight to view local times or setup timezone preferences in your user account.

Time Position Orientation Groundspeed Altitude Reporting Facility
EDT Latitude Longitude Course Direction KTS MPH feet Rate Location/Type
04:42PM 34.8197 -109.9081 124° Southeast 131 151 9,000  Level Albuquerque Center
04:43PM 34.8003 -109.8725 124° Southeast 131 151 9,600 600 Climbing Albuquerque Center
04:44PM 34.7772 -109.8317 124° Southeast 131 151 10,300 600 Climbing Albuquerque Center
04:45PM 34.7564 -109.7972 126° Southeast 132 152 10,900 480 Climbing Albuquerque Center
04:46PM 34.7342 -109.7594 126° Southeast 131 151 11,300 540 Climbing Albuquerque Center
04:47PM 34.7217 -109.7181 110° East 130 150 12,100 720 Climbing Albuquerque Center
04:48PM 34.7025 -109.6872 127° Southeast 126 145 12,800 660 Climbing Albuquerque Center
04:49PM 34.6825 -109.6475 121° Southeast 123 142 13,500 600 Climbing Albuquerque Center
04:50PM 34.6653 -109.6133 121° Southeast 123 142 14,100 540 Climbing Albuquerque Center
04:51PM 34.6467 -109.5719 119° Southeast 124 143 14,700 480 Climbing Albuquerque Center
04:52PM 34.6275 -109.5339 121° Southeast 131 151 15,100 120 Climbing Albuquerque Center
04:53PM 34.6067 -109.4889 119° Southeast 149 171 15,000  Descending Albuquerque Center
04:54PM 34.5786 -109.4378 124° Southeast 160 184 15,100  Climbing Albuquerque Center
04:55PM 34.5533 -109.3908 123° Southeast 166 191 15,000  Descending Albuquerque Center
04:56PM 34.5244 -109.3367 123° Southeast 170 196 15,100  Climbing Albuquerque Center
04:57PM 34.5006 -109.2875 121° Southeast 174 200 15,100  Level Albuquerque Center
04:58PM 34.4792 -109.2308 115° Southeast 168 193 15,100  Level Albuquerque Center
04:59PM 34.4611 -109.1817 114° Southeast 166 191 15,100 -60 Level Albuquerque Center
05:00PM 34.4433 -109.1328 114° Southeast 167 192 15,000  Descending Albuquerque Center
05:01PM 34.4303 -109.0722 105° East 165 190 15,100  Climbing Albuquerque Center
05:02PM 34.4244 -109.0178 97° East 168 193 15,100 -120 Level Albuquerque Center
05:03PM 34.4214 -108.9539 93° East 170 196 14,900 -120 Descending Albuquerque Center
05:04PM 34.4203 -108.8978 91° East 172 198 14,900  Level Albuquerque Center
05:05PM 34.4178 -108.8317 93° East 174 200 15,000  Climbing Albuquerque Center
05:06PM 34.4158 -108.7753 92° East 174 200 14,900 -60 Descending Albuquerque Center
05:07PM 34.4139 -108.7117 92° East 172 198 14,900  Level Albuquerque Center
05:09PM 34.4122 -108.6569 92° East 171 197 15,000  Climbing Albuquerque Center
05:10PM 34.4108 -108.5933 91° East 170 196 14,900  Descending Albuquerque Center
05:11PM 34.4386 -108.5600 45° Northeast 176 203 15,100  Climbing Albuquerque Center
05:12PM 34.4844 -108.5772 343° North 177 204 15,000 -60 Descending Albuquerque Center
05:13PM 34.5367 -108.5931 346° North 175 201 15,000  Level Albuquerque Center
05:14PM 34.5806 -108.6117 341° North 174 200 15,000 -60 Level Albuquerque Center
05:15PM 34.6331 -108.6311 343° North 176 203 14,900 -60 Descending Albuquerque Center
05:16PM 34.6772 -108.6492 341° North 175 201 14,900  Level Albuquerque Center
05:17PM 34.7303 -108.6664 345° North 175 201 14,900  Level Albuquerque Center
05:18PM 34.7742 -108.6844 341° North 175 201 14,900  Level Albuquerque Center
05:19PM 34.8175 -108.6989 345° North 171 197 14,900  Level Albuquerque Center
05:20PM 34.8689 -108.7092 351° North 168 193 15,000  Climbing Albuquerque Center
05:21PM 34.9142 -108.7094 360° North 168 193 14,900 -60 Descending Albuquerque Center
05:22PM 34.9542 -108.6900 22° Northeast 162 186 14,900  Level Albuquerque Center
05:23PM 34.9797 -108.6564 47° Northeast 145 167 14,900  Level Albuquerque Center
05:24PM 35.0069 -108.6122 53° Northeast 146 168 15,000  Climbing Albuquerque Center
05:25PM 35.0253 -108.5614 66° East 160 184 14,900  Descending Albuquerque Center
05:26PM 35.0469 -108.4992 67° East 175 201 15,000  Climbing Albuquerque Center
05:27PM 35.0544 -108.4489 80° East 163 188 14,900 -60 Descending Albuquerque Center
05:28PM 35.0569 -108.4000 86° East 156 180 14,900  Level Albuquerque Center
05:29PM 35.0564 -108.3436 91° East 151 174 14,900  Level Albuquerque Center
05:30PM 35.0581 -108.2939 88° East 152 175 14,900  Level Albuquerque Center
05:31PM 35.0578 -108.2353 90° East 155 178 14,900  Level Albuquerque Center
05:32PM 35.0603 -108.1872 86° East 150 173 14,900  Level Albuquerque Center
05:33PM 35.0622 -108.1308 88° East 150 173 14,900 -60 Level Albuquerque Center
05:34PM 35.0633 -108.0822 88° East 150 173 14,800 -60 Descending Albuquerque Center
05:35PM 35.0639 -108.0339 89° East 149 171 14,800  Level Albuquerque Center
05:36PM 35.0617 -107.9769 93° East 151 174 14,800  Level Albuquerque Center
05:37PM 35.0589 -107.9214 93° East 165 190 14,800  Level Albuquerque Center
05:38PM 35.0594 -107.8564 89° East 170 196 14,800  Level Albuquerque Center
05:39PM 35.0589 -107.8061 91° East 173 199 14,800  Level Albuquerque Center
05:40PM 35.0589 -107.7361 90° East 173 199 14,800  Level Albuquerque Center
05:41PM 35.0589 -107.6781 90° East 172 198 14,800  Level Albuquerque Center
05:42PM 35.0581 -107.6206 91° East 170 196 14,800  Level Albuquerque Center
05:43PM 35.0594 -107.5639 88° East 168 193 14,800  Level Albuquerque Center
05:44PM 35.0667 -107.5117 80° East 167 192 14,800  Level Albuquerque Center
05:45PM 35.0619 -107.4586 96° East 166 191 14,800 60 Level Albuquerque Center
05:46PM 35.0597 -107.4072 93° East 157 181 15,000 60 Climbing Albuquerque Center
05:47PM 35.0586 -107.3506 91° East 162 186 15,000  Level Albuquerque Center
05:48PM 35.0425 -107.2925 109° East 174 200 15,000  Level Albuquerque Center
05:49PM 35.0172 -107.2442 123° Southeast 174 200 15,000 -60 Level Albuquerque Center
05:50PM 34.9908 -107.1889 120° Southeast 175 201 14,900 -60 Descending Albuquerque Center
05:51PM 34.9689 -107.1347 116° Southeast 177 204 14,900  Level Albuquerque Center
05:52PM 34.9469 -107.0808 116° Southeast 180 207 15,000  Climbing Albuquerque Center
05:53PM 34.9250 -107.0267 116° Southeast 174 200 15,000  Level Albuquerque Center
05:55PM 34.9019 -106.9678 116° Southeast 171 197 15,000 -60 Level Albuquerque Center
05:56PM 34.8800 -106.9139 116° Southeast 174 200 14,900 -60 Descending Albuquerque Center
05:57PM 34.8583 -106.8625 117° Southeast 171 197 14,900  Level Albuquerque Center
05:58PM 34.8386 -106.8106 115° Southeast 169 194 14,900  Level Albuquerque Center
05:59PM 34.8172 -106.7619 118° Southeast 168 193 15,000  Climbing Albuquerque Center
06:00PM 34.7942 -106.7031 115° Southeast 169 194 14,900  Descending Albuquerque Center
06:01PM 34.7725 -106.6517 117° Southeast 169 194 15,000  Climbing Albuquerque Center
06:02PM 34.7469 -106.5872 116° Southeast 168 193 14,900  Descending Albuquerque Center
06:03PM 34.7244 -106.5342 117° Southeast 174 200 15,000  Climbing Albuquerque Center
06:04PM 34.7050 -106.4839 115° Southeast 169 194 15,000  Level Albuquerque Center
06:05PM 34.6836 -106.4328 117° Southeast 169 194 15,000  Level Albuquerque Center
06:06PM 34.6619 -106.3831 118° Southeast 168 193 15,000  Level Albuquerque Center
06:07PM 34.6408 -106.3342 118° Southeast 165 190 15,000  Level Albuquerque Center
06:08PM 34.6219 -106.2842 115° Southeast 163 188 15,000 -60 Level Albuquerque Center
06:09PM 34.5981 -106.2264 117° Southeast 162 186 14,900  Descending Albuquerque Center
06:10PM 34.5811 -106.1775 113° Southeast 158 182 15,000  Climbing Albuquerque Center
06:11PM 34.5689 -106.1278 107° East 155 178 15,000  Level Albuquerque Center
06:12PM 34.5531 -106.0786 111° Southeast 156 180 15,000 -60 Level Albuquerque Center
06:13PM 34.5294 -106.0286 120° Southeast 165 190 14,900  Descending Albuquerque Center
06:14PM 34.5058 -105.9781 120° Southeast 170 196 15,000  Climbing Albuquerque Center
06:15PM 34.4886 -105.9247 111° Southeast 169 194 15,000 -60 Level Albuquerque Center
06:16PM 34.4625 -105.8778 124° Southeast 167 192 14,900  Descending Albuquerque Center
06:17PM 34.4361 -105.8317 125° Southeast 166 191 15,000  Climbing Albuquerque Center
06:18PM 34.4119 -105.7803 120° Southeast 172 198 15,000  Level Albuquerque Center
06:19PM 34.3892 -105.7253 117° Southeast 178 205 15,000  Level Albuquerque Center
06:20PM 34.3600 -105.6644 120° Southeast 178 205 15,000  Level Albuquerque Center
06:21PM 34.3239 -105.6219 136° Southeast 177 204 15,000 -60 Level Albuquerque Center
06:22PM 34.2831 -105.5867 144° Southeast 178 205 14,900 -60 Descending Albuquerque Center
06:23PM 34.2472 -105.5494 139° Southeast 175 201 14,900  Level Albuquerque Center
06:24PM 34.2111 -105.5108 139° Southeast 172 198 15,000  Climbing Albuquerque Center
06:25PM 34.1731 -105.4731 141° Southeast 174 200 15,000  Level Albuquerque Center
06:27PM 34.1353 -105.4344 140° Southeast 175 201 15,000  Level Albuquerque Center
06:28PM 34.0969 -105.3958 140° Southeast 176 203 15,000  Level Albuquerque Center
06:29PM 34.0603 -105.3569 139° Southeast 175 201 15,000  Level Albuquerque Center
06:30PM 34.0225 -105.3178 139° Southeast 176 203 15,000  Level Albuquerque Center
06:31PM 33.9861 -105.2803 139° Southeast 174 200 15,000  Level Albuquerque Center
06:32PM 33.9411 -105.2347 140° Southeast 179 206 15,000  Level Albuquerque Center
06:33PM 33.9028 -105.1972 141° Southeast 178 205 15,000  Level Albuquerque Center
06:34PM 33.8639 -105.1578 140° Southeast 182 209 15,000  Level Albuquerque Center
06:35PM 33.8222 -105.1131 138° Southeast 188 216 15,000  Level Albuquerque Center
06:36PM 33.7850 -105.0747 139° Southeast 180 207 15,000  Level Albuquerque Center
06:37PM 33.7461 -105.0350 140° Southeast 181 208 15,000  Level Albuquerque Center
06:38PM 33.7061 -104.9950 140° Southeast 176 203 15,000  Level Albuquerque Center
06:39PM 33.6672 -104.9558 140° Southeast 182 209 15,000  Level Albuquerque Center
06:40PM 33.6297 -104.9169 139° Southeast 179 206 15,000  Level Albuquerque Center
06:41PM 33.5883 -104.8747 140° Southeast 182 209 15,000  Level Albuquerque Center
06:42PM 33.5500 -104.8358 140° Southeast 181 208 15,000  Level Albuquerque Center
06:43PM 33.5122 -104.7981 140° Southeast 178 205 15,000  Level Albuquerque Center
06:44PM 33.4700 -104.7561 140° Southeast 182 209 15,000  Level Albuquerque Center
06:45PM 33.4331 -104.7178 139° Southeast 177 204 15,000  Level Albuquerque Center
06:46PM 33.3947 -104.6786 140° Southeast 179 206 15,000  Level Albuquerque Center
06:47PM 33.3550 -104.6383 140° Southeast 175 201 15,000  Level Albuquerque Center
06:48PM 33.3217 -104.5975 134° Southeast 172 198 15,000  Level Albuquerque Center
06:49PM 33.2975 -104.5531 123° Southeast 176 203 15,000  Level Albuquerque Center
06:50PM 33.2719 -104.4908 116° Southeast 181 208 15,000  Level Albuquerque Center
06:51PM 33.2486 -104.4433 120° Southeast 169 194 15,000  Level Albuquerque Center
06:52PM 33.2211 -104.3908 122° Southeast 173 199 15,000  Level Albuquerque Center
06:53PM 33.1964 -104.3417 121° Southeast 173 199 15,000  Level Albuquerque Center
06:54PM 33.1719 -104.2925 121° Southeast 173 199 15,000  Level Albuquerque Center
06:55PM 33.1447 -104.2397 122° Southeast 173 199 15,000  Level Albuquerque Center
06:56PM 33.1206 -104.1903 120° Southeast 173 199 15,000  Level Albuquerque Center
06:57PM 33.0953 -104.1411 122° Southeast 175 201 15,000  Level Albuquerque Center
06:58PM 33.0694 -104.0917 122° Southeast 177 204 15,000  Level Albuquerque Center
06:59PM 33.0419 -104.0381 121° Southeast 177 204 15,000  Level Albuquerque Center
07:00PM 33.0183 -103.9886 120° Southeast 173 199 15,000  Level Albuquerque Center
07:01PM 32.9925 -103.9414 123° Southeast 171 197 15,000  Level Albuquerque Center
07:02PM 32.9664 -103.8892 121° Southeast 171 197 15,000  Level Albuquerque Center
07:03PM 32.9408 -103.8408 122° Southeast 173 199 15,000  Level Albuquerque Center
07:04PM 32.9144 -103.7906 122° Southeast 179 206 15,000  Level Albuquerque Center
07:05PM 32.8881 -103.7400 122° Southeast 179 206 15,000  Level Albuquerque Center
07:06PM 32.8639 -103.6950 123° Southeast 175 201 15,000 -60 Level Albuquerque Center
07:07PM 32.8386 -103.6461 122° Southeast 173 199 14,900  Descending Albuquerque Center
07:08PM 32.8122 -103.5967 122° Southeast 176 203 15,000  Climbing Albuquerque Center
07:09PM 32.7872 -103.5483 122° Southeast 174 200 14,900  Descending Albuquerque Center
07:11PM 32.7561 -103.4906 123° Southeast 173 199 15,000  Climbing Albuquerque Center
07:12PM 32.7314 -103.4417 121° Southeast 173 199 15,000  Level Albuquerque Center
07:13PM 32.7058 -103.3944 123° Southeast 172 198 15,000  Level Albuquerque Center
07:13PM 32.6842 -103.3539 122° Southeast 173 199 15,000  Level Fort Worth Center
07:14PM 32.6594 -103.3056 121° Southeast 173 199 15,000 -60 Level Fort Worth Center
07:15PM 32.6322 -103.2592 125° Southeast 173 199 14,900  Descending Fort Worth Center
07:16PM 32.6094 -103.2108 119° Southeast 173 199 15,000  Climbing Fort Worth Center
07:17PM 32.5803 -103.1672 128° Southeast 173 199 14,900  Descending Fort Worth Center
07:18PM 32.5533 -103.1186 123° Southeast 173 199 15,000  Climbing Fort Worth Center
07:19PM 32.5261 -103.0725 125° Southeast 173 199 14,900  Descending Fort Worth Center
07:20PM 32.4969 -103.0239 125° Southeast 173 199 15,000  Climbing Fort Worth Center
07:21PM 32.4697 -102.9781 125° Southeast 173 199 14,900 -60 Descending Fort Worth Center
07:22PM 32.4428 -102.9319 125° Southeast 173 199 14,900  Level Fort Worth Center
07:23PM 32.4175 -102.8836 122° Southeast 173 199 15,000  Climbing Fort Worth Center
07:24PM 32.3883 -102.8378 127° Southeast 173 199 15,000  Level Fort Worth Center
07:25PM 32.3611 -102.7917 125° Southeast 173 199 15,000  Level Fort Worth Center
07:26PM 32.3319 -102.7433 126° Southeast 173 199 15,000 -60 Level Fort Worth Center
07:27PM 32.3047 -102.6950 124° Southeast 173 199 14,900  Descending Fort Worth Center
07:28PM 32.2772 -102.6492 125° Southeast 173 199 15,000  Climbing Fort Worth Center
07:29PM 32.2503 -102.6011 124° Southeast 173 199 14,900  Descending Fort Worth Center
07:30PM 32.2247 -102.5578 125° Southeast 178 205 15,000  Climbing Fort Worth Center
07:31PM 32.1975 -102.5097 124° Southeast 178 205 14,900  Descending Fort Worth Center
07:32PM 32.1681 -102.4614 126° Southeast 178 205 15,000  Climbing Fort Worth Center
07:33PM 32.1408 -102.4156 125° Southeast 178 205 14,900  Descending Fort Worth Center
07:34PM 32.1133 -102.3700 125° Southeast 178 205 15,000  Climbing Fort Worth Center
07:35PM 32.0883 -102.3197 120° Southeast 178 205 15,000  Level Fort Worth Center
07:36PM 32.0589 -102.2714 126° Southeast 178 205 15,000  Level Fort Worth Center
07:37PM 32.0314 -102.2258 125° Southeast 178 205 15,000 -60 Level Fort Worth Center
07:38PM 32.0039 -102.1781 124° Southeast 178 205 14,900 -60 Descending Fort Worth Center
07:39PM 31.9786 -102.1300 122° Southeast 178 205 14,900  Level Fort Worth Center
07:40PM 31.9492 -102.0797 125° Southeast 173 199 14,900  Level Fort Worth Center
07:41PM 31.9236 -102.0367 125° Southeast 173 199 15,000  Climbing Fort Worth Center
07:42PM 31.8961 -101.9889 124° Southeast 173 199 15,000 -60 Level Fort Worth Center
07:43PM 31.8667 -101.9386 125° Southeast 173 199 14,900 -60 Descending Fort Worth Center
07:44PM 31.8392 -101.8906 124° Southeast 173 199 14,900  Level Fort Worth Center
07:45PM 31.8117 -101.8406 123° Southeast 173 199 14,900  Level Fort Worth Center
07:46PM 31.7842 -101.7928 124° Southeast 173 199 14,900  Level Fort Worth Center
07:47PM 31.7564 -101.7475 126° Southeast 173 199 14,900  Level Fort Worth Center
07:48PM 31.7308 -101.7022 124° Southeast 173 199 14,900  Level Fort Worth Center
07:49PM 31.7014 -101.6519 125° Southeast 178 205 15,000  Climbing Fort Worth Center
07:50PM 31.6736 -101.6069 126° Southeast 178 205 14,900 -60 Descending Fort Worth Center
07:51PM 31.6461 -101.5567 123° Southeast 178 205 14,900  Level Fort Worth Center
07:52PM 31.6183 -101.5117 126° Southeast 173 199 14,900  Level Fort Worth Center
07:53PM 31.5886 -101.4617 125° Southeast 173 199 15,000  Climbing Fort Worth Center
07:54PM 31.5608 -101.4164 126° Southeast 173 199 14,900  Descending Fort Worth Center
07:55PM 31.5353 -101.3689 122° Southeast 173 199 15,000  Climbing Fort Worth Center
07:56PM 31.5053 -101.3239 128° Southeast 173 199 15,000  Level Fort Worth Center
07:57PM 31.4797 -101.2764 122° Southeast 178 205 15,000 -60 Level Fort Worth Center
07:58PM 31.4519 -101.2292 125° Southeast 178 205 14,900  Descending Fort Worth Center
07:59PM 31.4219 -101.1817 126° Southeast 178 205 15,000  Climbing Fort Worth Center
08:00PM 31.3919 -101.1342 126° Southeast 173 199 15,000 -60 Level Fort Worth Center
08:01PM 31.3661 -101.0894 124° Southeast 178 205 14,900 -120 Descending Fort Worth Center
08:02PM 31.3503 -101.0608 123° Southeast 177 204 14,900 60 Level Houston Center
08:03PM 31.3281 -101.0217 124° Southeast 176 203 15,000  Climbing Houston Center
08:04PM 31.2942 -100.9647 125° Southeast 177 204 14,900  Descending Houston Center
08:05PM 31.2669 -100.9183 124° Southeast 175 201 15,000  Climbing Houston Center
08:06PM 31.2394 -100.8714 124° Southeast 175 201 15,000  Level Houston Center
08:07PM 31.2114 -100.8244 125° Southeast 176 203 15,000  Level Houston Center
08:08PM 31.1825 -100.7781 126° Southeast 177 204 15,000  Level Houston Center
08:09PM 31.1550 -100.7322 125° Southeast 174 200 15,000  Level Houston Center
08:10PM 31.1264 -100.6844 125° Southeast 178 205 15,000  Level Houston Center
08:11PM 31.0925 -100.6283 125° Southeast 177 204 15,000  Level Houston Center
08:12PM 31.0642 -100.5817 125° Southeast 177 204 15,000  Level Houston Center
08:13PM 31.0358 -100.5336 125° Southeast 179 206 15,000  Level Houston Center
08:14PM 31.0067 -100.4875 126° Southeast 178 205 15,000  Level Houston Center
08:15PM 30.9794 -100.4394 123° Southeast 178 205 15,000  Level Houston Center
08:16PM 30.9514 -100.3939 126° Southeast 175 201 15,000  Level Houston Center
08:17PM 30.9242 -100.3469 124° Southeast 174 200 15,000  Level Houston Center
08:18PM 30.8892 -100.2900 126° Southeast 179 206 15,000  Level Houston Center
08:19PM 30.8600 -100.2431 126° Southeast 179 206 15,000  Level Houston Center
08:20PM 30.8311 -100.1969 126° Southeast 177 204 15,000  Level Houston Center
08:21PM 30.7919 -100.1647 145° Southeast 174 200 15,000  Level Houston Center
08:22PM 30.7642 -100.1178 125° Southeast 180 207 15,000  Level Houston Center
08:24PM 30.7497 -100.0625 107° East 179 206 15,000  Level Houston Center
08:25PM 30.7336 -100.0075 109° East 180 207 15,000  Level Houston Center
08:26PM 30.7147 -99.9542 112° Southeast 180 207 15,000  Level Houston Center
08:27PM 30.6808 -99.8967 124° Southeast 179 206 15,000  Level Houston Center
08:28PM 30.6542 -99.8467 122° Southeast 184 212 15,000  Level Houston Center
08:29PM 30.6233 -99.8008 128° Southeast 181 208 15,000  Level Houston Center
08:30PM 30.5917 -99.7567 130° Southeast 180 207 15,000  Level Houston Center
08:31PM 30.5597 -99.7056 126° Southeast 176 203 15,000  Level Houston Center
08:32PM 30.5325 -99.6639 127° Southeast 181 208 15,000  Level Houston Center
08:33PM 30.5028 -99.6178 127° Southeast 179 206 15,000  Level Houston Center
08:34PM 30.4672 -99.5619 126° Southeast 180 207 15,000  Level Houston Center
08:35PM 30.4369 -99.5161 127° Southeast 179 206 15,000  Level Houston Center
08:36PM 30.4075 -99.4697 126° Southeast 178 205 15,000  Level Houston Center
08:37PM 30.3767 -99.4231 127° Southeast 181 208 15,000  Level Houston Center
08:38PM 30.3472 -99.3772 127° Southeast 179 206 15,000  Level Houston Center
08:39PM 30.3175 -99.3303 126° Southeast 181 208 15,000  Level Houston Center
08:40PM 30.2875 -99.2844 127° Southeast 179 206 15,000 -420 Level Houston Center
08:41PM 30.2553 -99.2356 127° Southeast 189 217 14,200 -900 Descending Houston Center
08:42PM 30.2119 -99.1714 128° Southeast 209 241 13,200 -900 Descending Houston Center
08:43PM 30.1769 -99.1175 127° Southeast 210 242 12,400 -780 Descending Houston Center
08:44PM 30.1406 -99.0619 127° Southeast 209 241 11,600 -780 Descending Houston Center
08:45PM 30.1033 -99.0064 128° Southeast 203 234 10,900 -780 Descending Houston Center
08:46PM 30.0700 -98.9542 126° Southeast 201 231 10,100 -780 Descending Houston Center
08:47PM 30.0364 -98.9033 127° Southeast 200 230 9,300 -780 Descending Houston Center
08:48PM 30.0017 -98.8508 127° Southeast 192 221 8,600 -720 Descending Houston Center
08:49PM 29.9700 -98.8019 127° Southeast 190 219 7,900 -720 Descending Houston Center
08:50PM 29.9400 -98.7542 126° Southeast 186 214 7,200 -840 Descending Houston Center
08:51PM 29.9061 -98.7058 129° Southeast 180 207 6,200 -780 Descending Houston Center
08:52PM 29.8758 -98.6583 126° Southeast 176 203 5,700 -540 Descending Houston Center
08:54PM 29.8394 -98.6050 128° Southeast  Level FlightAware Approximate
09:01PM 29.7333 -98.4500 North  Level FlightAware Approximate
09:02PM 29.7391 -98.4511 North  Level Estimated